Terminal Aerodrome Forecast
Issued by NWS

Home | Current Version | Previous Version | Text Only | Print | Product List | Glossary On
Versions: 1 2 3 4 5 6 7 8 9 10 11 12 13 14 15
000
FTUS44 KCRP 280101 AAA
TAFLRD
TAF AMD
KLRD 280101Z 2801/2824 14008KT P6SM VCTS SCT060CB BKN150
      TEMPO 2801/2803 VRB15G25KT 5SM TSRA BKN040CB
     FM280300 14012KT P6SM SCT040 BKN150
     FM281000 13007KT P6SM SCT020 BKN150
      TEMPO 2810/2814 BKN020
     FM281500 15011KT P6SM BKN025 OVC200
     FM281900 14013KT P6SM BKN050 BKN200=

USA.gov is the U.S. government's official web portal to all federal, state and local government web resources and services.